Time;durP1;ratioP1;P1;durP2;ratioP2;P2;SDS_P1;SDS_P2;PMS_P1;PMS_P2;Temp;Humidity;BMP_temperature;BMP_pressure;BME280_temperature;BME280_humidity;BME280_pressure;Samples;Min_cycle;Max_cycle;Signal;HPM_P1;HPM_P2
2023/06/27 03:00:50;;;;;;;11.77;6.13;;;14.50;99.90;;;;;;5881278;22;20133;-75
2023/06/27 03:03:16;;;;;;;9.40;5.13;;;14.50;99.90;;;;;;5006110;28;20117;-75
2023/06/27 03:05:41;;;;;;;8.45;5.20;;;14.40;99.90;;;;;;5005748;28;20096;-76
2023/06/27 03:08:07;;;;;;;9.77;5.50;;;14.40;99.90;;;;;;5002620;28;20069;-75
2023/06/27 03:10:33;;;;;;;9.27;5.78;;;14.40;99.90;;;;;;5003323;28;20053;-75
2023/06/27 03:12:59;;;;;;;13.43;6.28;;;14.40;99.90;;;;;;5004669;28;20501;-76
2023/06/27 03:15:25;;;;;;;13.10;5.47;;;14.40;99.90;;;;;;5004780;28;20038;-75
2023/06/27 03:17:50;;;;;;;14.52;6.00;;;14.50;99.90;;;;;;5005140;28;20706;-77
2023/06/27 03:20:16;;;;;;;8.20;5.35;;;14.50;99.90;;;;;;5002751;28;20140;-74
2023/06/27 03:22:43;;;;;;;11.70;6.97;;;14.50;99.90;;;;;;5005447;28;20042;-75
2023/06/27 03:25:10;;;;;;;11.30;6.30;;;14.50;99.90;;;;;;5003280;28;20109;-76
2023/06/27 03:27:36;;;;;;;9.75;6.22;;;14.50;99.90;;;;;;5003084;28;20045;-75
2023/06/27 03:30:03;;;;;;;13.57;6.18;;;14.50;99.90;;;;;;5002613;28;20042;-75
2023/06/27 03:32:28;;;;;;;16.85;7.38;;;14.50;99.90;;;;;;5004133;28;20056;-75
2023/06/27 03:34:54;;;;;;;11.13;6.53;;;14.50;99.90;;;;;;5002415;28;20041;-75
2023/06/27 03:37:19;;;;;;;10.80;5.90;;;14.50;99.90;;;;;;5003785;28;20491;-75
2023/06/27 03:39:45;;;;;;;18.00;6.65;;;14.50;99.90;;;;;;5003703;28;20092;-75
2023/06/27 03:42:11;;;;;;;12.15;6.10;;;14.50;99.90;;;;;;5002380;28;20050;-75
2023/06/27 03:44:37;;;;;;;12.13;7.00;;;14.60;99.90;;;;;;5005321;28;20503;-76
2023/06/27 03:47:03;;;;;;;11.15;6.45;;;14.60;99.90;;;;;;5002558;28;20113;-76
2023/06/27 03:49:29;;;;;;;10.60;6.00;;;14.60;99.90;;;;;;5003191;28;20111;-75
2023/06/27 03:51:55;;;;;;;12.02;6.18;;;14.50;99.90;;;;;;5002239;28;20086;-75
2023/06/27 03:54:21;;;;;;;10.05;6.00;;;14.50;99.90;;;;;;5003693;28;20038;-75
2023/06/27 03:56:47;;;;;;;16.48;7.53;;;14.60;99.90;;;;;;5005551;28;20045;-75
2023/06/27 03:59:13;;;;;;;12.20;6.90;;;14.60;99.90;;;;;;5001772;28;20035;-75
2023/06/27 04:01:41;;;;;;;13.85;6.70;;;14.60;99.90;;;;;;5002583;28;20046;-75
2023/06/27 04:04:07;;;;;;;12.77;6.35;;;14.60;99.90;;;;;;5002067;28;20133;-75
2023/06/27 04:06:33;;;;;;;10.15;6.30;;;14.60;99.90;;;;;;5006241;28;20041;-75
2023/06/27 04:08:59;;;;;;;17.00;7.10;;;14.60;99.90;;;;;;5005471;28;20095;-75
2023/06/27 04:11:25;;;;;;;15.88;6.80;;;14.60;99.90;;;;;;5006834;28;20141;-75
2023/06/27 04:13:51;;;;;;;11.20;6.72;;;14.60;99.90;;;;;;5004693;28;20137;-75
2023/06/27 04:16:16;;;;;;;11.65;6.47;;;14.60;99.90;;;;;;5006739;28;20042;-75
2023/06/27 04:18:42;;;;;;;12.30;5.85;;;14.70;99.90;;;;;;5007082;28;20406;-75
2023/06/27 04:21:08;;;;;;;13.52;6.82;;;14.70;99.90;;;;;;5006669;28;20053;-75
2023/06/27 04:23:34;;;;;;;13.45;5.95;;;14.70;99.90;;;;;;5008758;28;20387;-76
2023/06/27 04:26:04;;;;;;;15.52;6.43;;;14.80;99.90;;;;;;5014609;28;20519;-75
2023/06/27 04:28:31;;;;;;;11.88;5.97;;;14.80;99.90;;;;;;5014735;28;20073;-75
2023/06/27 04:30:58;;;;;;;12.60;5.88;;;14.80;99.90;;;;;;5012414;28;20103;-74
2023/06/27 04:33:23;;;;;;;12.88;6.10;;;14.80;99.90;;;;;;5015980;28;20045;-75
2023/06/27 04:35:49;;;;;;;13.85;6.03;;;14.90;99.90;;;;;;4996226;28;20041;-75
2023/06/27 04:38:15;;;;;;;9.10;5.60;;;14.90;99.90;;;;;;5014287;28;20116;-75
2023/06/27 04:40:43;;;;;;;13.80;6.40;;;15.00;99.90;;;;;;5014870;28;20033;-74
2023/06/27 04:43:09;;;;;;;11.77;5.82;;;15.00;99.90;;;;;;5011953;28;20037;-75
2023/06/27 04:45:35;;;;;;;11.38;5.68;;;15.00;99.90;;;;;;5016159;28;20042;-74
2023/06/27 04:48:00;;;;;;;14.05;5.68;;;15.10;99.90;;;;;;5014578;28;20491;-76
2023/06/27 04:50:26;;;;;;;14.10;5.78;;;15.20;99.90;;;;;;5014675;28;20069;-75
2023/06/27 04:52:51;;;;;;;14.07;6.15;;;15.20;99.90;;;;;;5014319;28;20096;-75
2023/06/27 04:55:17;;;;;;;10.30;5.07;;;15.30;99.90;;;;;;5015560;28;20066;-75
2023/06/27 04:57:43;;;;;;;12.15;5.40;;;15.30;99.90;;;;;;5015396;28;20453;-74
2023/06/27 05:00:10;;;;;;;11.40;5.00;;;15.30;99.90;;;;;;5014033;28;20056;-75
2023/06/27 05:02:36;;;;;;;9.70;5.20;;;15.40;99.90;;;;;;5010545;28;20046;-75
2023/06/27 05:05:04;;;;;;;13.00;5.20;;;15.50;99.90;;;;;;5005991;28;20042;-75
2023/06/27 05:07:29;;;;;;;11.45;5.38;;;15.50;99.90;;;;;;5014378;28;20073;-75
2023/06/27 05:09:55;;;;;;;12.27;5.47;;;15.60;99.90;;;;;;5013748;28;20077;-75
2023/06/27 05:12:21;;;;;;;8.82;5.20;;;15.60;99.90;;;;;;5013869;28;20042;-76
2023/06/27 05:14:46;;;;;;;12.20;5.28;;;15.60;99.90;;;;;;5009064;28;20077;-75
2023/06/27 05:17:12;;;;;;;13.75;5.25;;;15.60;99.90;;;;;;5006866;28;20074;-75
2023/06/27 05:19:38;;;;;;;10.55;5.25;;;15.70;99.90;;;;;;5002456;28;20034;-75
2023/06/27 05:22:03;;;;;;;8.52;4.90;;;15.70;99.90;;;;;;4995108;28;20038;-74
2023/06/27 05:24:29;;;;;;;13.27;4.90;;;15.80;99.90;;;;;;5012557;28;20492;-75
2023/06/27 05:26:55;;;;;;;9.15;4.65;;;15.80;99.90;;;;;;5007062;28;20041;-75
2023/06/27 05:29:20;;;;;;;12.90;5.50;;;15.80;99.90;;;;;;5012232;28;20391;-74
2023/06/27 05:31:46;;;;;;;13.07;4.60;;;15.90;99.90;;;;;;5026681;28;20121;-74
2023/06/27 05:34:12;;;;;;;10.63;4.93;;;16.00;99.90;;;;;;5006502;28;20129;-76
2023/06/27 05:36:38;;;;;;;10.73;4.60;;;16.00;99.90;;;;;;5008109;28;20045;-74
2023/06/27 05:39:03;;;;;;;9.77;4.57;;;16.10;99.90;;;;;;5009871;28;20041;-75
2023/06/27 05:41:30;;;;;;;12.18;4.38;;;16.20;99.90;;;;;;5013195;28;20380;-81
2023/06/27 05:43:56;;;;;;;11.98;4.30;;;16.30;99.90;;;;;;5012985;28;20395;-74
2023/06/27 05:46:22;;;;;;;12.00;4.35;;;16.40;99.90;;;;;;5012609;28;20121;-75
2023/06/27 05:48:47;;;;;;;9.35;3.25;;;16.40;99.90;;;;;;5012290;28;20099;-76
2023/06/27 05:51:13;;;;;;;8.10;3.35;;;16.50;99.90;;;;;;5009653;28;20644;-76
2023/06/27 05:53:39;;;;;;;10.98;4.00;;;16.60;99.90;;;;;;5005014;28;20034;-76
2023/06/27 05:56:05;;;;;;;8.45;3.60;;;16.70;99.90;;;;;;5003270;28;20049;-75
2023/06/27 05:58:34;;;;;;;8.55;3.00;;;16.70;99.90;;;;;;5001495;28;20069;-75
2023/06/27 06:01:00;;;;;;;7.63;2.30;;;16.80;99.90;;;;;;5001373;28;20380;-74
2023/06/27 06:03:26;;;;;;;8.88;1.80;;;17.00;99.90;;;;;;5003371;28;20081;-74
2023/06/27 06:05:51;;;;;;;11.40;2.00;;;17.10;99.90;;;;;;5003266;28;20072;-75
2023/06/27 06:08:18;;;;;;;9.05;1.90;;;17.20;99.90;;;;;;5002434;28;20041;-74
2023/06/27 06:10:45;;;;;;;10.73;2.58;;;17.20;99.90;;;;;;5001635;28;20050;-75
2023/06/27 06:13:11;;;;;;;6.45;1.83;;;17.40;99.90;;;;;;5005910;28;20045;-74
2023/06/27 06:15:36;;;;;;;5.18;1.50;;;17.40;99.90;;;;;;5003598;28;20073;-74
2023/06/27 06:18:02;;;;;;;7.10;1.58;;;17.50;99.90;;;;;;5001773;28;20061;-75
2023/06/27 06:20:29;;;;;;;8.25;1.63;;;17.70;99.90;;;;;;5005575;28;20034;-74
2023/06/27 06:22:55;;;;;;;6.43;1.27;;;17.80;99.90;;;;;;5012277;28;20045;-75
2023/06/27 06:25:21;;;;;;;7.68;1.38;;;17.90;99.90;;;;;;5011145;28;20395;-76
2023/06/27 06:27:47;;;;;;;4.13;1.17;;;18.00;99.90;;;;;;5014043;28;20038;-76
2023/06/27 06:30:13;;;;;;;8.13;2.00;;;18.10;99.90;;;;;;5011970;28;20045;-75
2023/06/27 06:32:39;;;;;;;4.43;1.20;;;18.20;99.90;;;;;;5008544;28;20042;-75
2023/06/27 06:35:06;;;;;;;5.57;1.15;;;18.30;99.90;;;;;;5002943;28;20054;-74
2023/06/27 06:37:32;;;;;;;4.13;1.23;;;18.40;99.90;;;;;;5008000;28;20443;-74
2023/06/27 06:39:57;;;;;;;6.47;1.30;;;18.50;99.90;;;;;;5004802;28;20117;-75
2023/06/27 06:42:23;;;;;;;6.55;1.38;;;18.50;99.90;;;;;;5012403;28;20050;-75
2023/06/27 06:44:48;;;;;;;5.95;1.58;;;18.60;99.90;;;;;;5011287;28;20498;-75
2023/06/27 06:47:14;;;;;;;5.55;1.48;;;18.70;99.90;;;;;;5012168;28;20046;-75
2023/06/27 06:49:40;;;;;;;7.80;1.48;;;18.80;99.90;;;;;;5011853;28;20045;-74
2023/06/27 06:52:06;;;;;;;5.93;0.98;;;18.80;99.90;;;;;;5013471;28;20109;-75
2023/06/27 06:54:32;;;;;;;2.65;0.90;;;18.80;99.90;;;;;;5012256;28;20081;-75
2023/06/27 06:56:57;;;;;;;4.35;1.00;;;18.80;99.90;;;;;;5012136;28;20120;-75
2023/06/27 06:59:23;;;;;;;4.28;1.10;;;18.80;99.90;;;;;;5013468;28;20069;-76
2023/06/27 07:01:48;;;;;;;6.07;1.20;;;18.80;99.90;;;;;;5012631;28;20030;-74
2023/06/27 07:04:14;;;;;;;6.68;0.95;;;18.90;99.90;;;;;;5013580;28;20049;-75
2023/06/27 07:06:40;;;;;;;5.00;0.80;;;18.90;99.90;;;;;;5012226;28;20050;-75
2023/06/27 07:09:05;;;;;;;5.47;1.20;;;19.00;99.90;;;;;;5013284;28;20045;-75
2023/06/27 07:11:31;;;;;;;10.68;1.20;;;19.00;99.90;;;;;;5013398;28;20053;-74
2023/06/27 07:13:59;;;;;;;6.30;1.50;;;19.00;99.90;;;;;;4995741;28;20045;-74
2023/06/27 07:16:24;;;;;;;4.47;1.00;;;19.10;99.90;;;;;;5011840;28;20050;-75
2023/06/27 07:18:51;;;;;;;5.55;0.90;;;19.10;99.90;;;;;;5012357;28;20140;-75
2023/06/27 07:21:17;;;;;;;5.70;0.98;;;19.20;99.90;;;;;;5013216;28;20050;-74
2023/06/27 07:23:42;;;;;;;4.57;1.10;;;19.20;99.90;;;;;;5011766;28;20398;-74
2023/06/27 07:26:08;;;;;;;7.10;1.15;;;19.20;99.90;;;;;;5013240;28;20113;-74
2023/06/27 07:28:33;;;;;;;4.35;1.25;;;19.20;99.90;;;;;;5013051;28;20140;-74
2023/06/27 07:30:59;;;;;;;6.75;1.00;;;19.10;99.90;;;;;;5013140;28;20077;-75
2023/06/27 07:33:25;;;;;;;4.70;0.98;;;19.10;99.90;;;;;;5011747;28;20049;-74
2023/06/27 07:35:51;;;;;;;6.10;1.30;;;19.10;99.90;;;;;;5011765;28;20037;-75
2023/06/27 07:38:16;;;;;;;6.03;0.82;;;19.10;99.90;;;;;;5011686;28;20124;-75
2023/06/27 07:40:43;;;;;;;4.75;1.20;;;19.10;99.90;;;;;;5011660;28;20069;-74
2023/06/27 07:43:08;;;;;;;4.53;0.95;;;19.10;99.90;;;;;;5013786;28;20424;-75
2023/06/27 07:45:34;;;;;;;5.22;1.05;;;19.20;99.90;;;;;;5016162;28;20092;-73
2023/06/27 07:47:59;;;;;;;6.50;1.17;;;19.20;99.90;;;;;;5015463;28;20041;-74
2023/06/27 07:50:25;;;;;;;6.93;1.08;;;19.30;99.90;;;;;;5016565;28;20078;-75
2023/06/27 07:52:51;;;;;;;5.93;1.08;;;19.30;99.90;;;;;;5016035;28;20088;-75
2023/06/27 07:55:16;;;;;;;3.00;0.77;;;19.40;99.90;;;;;;5010815;28;20101;-74
2023/06/27 07:57:42;;;;;;;4.35;1.08;;;19.40;99.90;;;;;;5008689;28;20049;-74
2023/06/27 08:00:08;;;;;;;4.65;1.10;;;19.40;99.90;;;;;;5016201;28;20034;-75
2023/06/27 08:02:34;;;;;;;5.57;1.15;;;19.40;99.90;;;;;;5015255;28;20455;-75
2023/06/27 08:05:00;;;;;;;5.47;1.10;;;19.50;99.90;;;;;;5008126;28;20030;-75
2023/06/27 08:07:26;;;;;;;5.25;1.00;;;19.50;99.90;;;;;;5005362;28;20045;-75
2023/06/27 08:09:52;;;;;;;4.47;1.00;;;19.50;99.90;;;;;;4991333;28;20053;-75
2023/06/27 08:12:17;;;;;;;5.35;1.10;;;19.50;99.90;;;;;;4999250;28;20095;-76
2023/06/27 08:14:45;;;;;;;3.22;0.98;;;19.60;99.90;;;;;;5014964;28;20042;-76
2023/06/27 08:17:10;;;;;;;6.22;1.20;;;19.60;99.90;;;;;;5014895;28;20045;-76
2023/06/27 08:19:36;;;;;;;7.07;1.38;;;19.60;99.90;;;;;;5014819;28;20038;-77
2023/06/27 08:22:02;;;;;;;5.50;1.10;;;19.70;99.90;;;;;;5014694;28;20423;-75
2023/06/27 08:24:28;;;;;;;5.40;1.13;;;19.80;99.90;;;;;;5015987;28;20096;-75
2023/06/27 08:26:55;;;;;;;3.97;1.00;;;19.90;99.90;;;;;;5016069;28;20037;-75
2023/06/27 08:29:23;;;;;;;4.63;1.05;;;19.90;99.90;;;;;;5014842;28;20045;-75
2023/06/27 08:31:51;;;;;;;7.70;1.33;;;20.10;99.90;;;;;;5014551;28;20084;-76
2023/06/27 08:34:17;;;;;;;3.88;0.95;;;20.20;99.90;;;;;;5016888;28;20062;-75
2023/06/27 08:36:43;;;;;;;2.97;1.10;;;20.20;99.90;;;;;;5014494;28;20045;-75
2023/06/27 08:39:09;;;;;;;3.88;0.90;;;20.20;99.90;;;;;;5016038;28;20391;-75
2023/06/27 08:41:35;;;;;;;5.20;1.15;;;20.20;99.90;;;;;;5015593;28;20080;-75
2023/06/27 08:44:01;;;;;;;5.10;1.35;;;20.00;99.90;;;;;;4998091;28;20042;-75
2023/06/27 08:46:30;;;;;;;9.43;1.33;;;19.90;99.90;;;;;;5014706;28;20038;-76
2023/06/27 08:49:01;;;;;;;5.60;1.23;;;19.90;99.90;;;;;;5015754;28;20034;-75
2023/06/27 08:51:29;;;;;;;7.70;1.10;;;19.90;99.90;;;;;;5015484;28;20042;-76
2023/06/27 08:54:03;;;;;;;7.15;0.90;;;19.90;99.90;;;;;;5013890;28;20479;-75
2023/06/27 08:56:31;;;;;;;2.33;0.87;;;19.90;99.90;;;;;;5013638;28;20038;-76
2023/06/27 08:59:03;;;;;;;3.88;1.00;;;20.00;99.90;;;;;;5014968;28;20033;-74
2023/06/27 09:01:33;;;;;;;5.20;0.95;;;20.10;99.90;;;;;;5014545;28;20450;-76
2023/06/27 09:04:01;;;;;;;6.80;1.42;;;19.90;99.90;;;;;;5014201;28;20395;-79
2023/06/27 09:06:27;;;;;;;4.78;1.05;;;19.90;99.90;;;;;;5015737;28;20041;-79
2023/06/27 09:08:54;;;;;;;8.18;1.10;;;19.80;99.90;;;;;;5015157;28;20038;-76
2023/06/27 09:11:20;;;;;;;6.43;1.42;;;19.80;99.90;;;;;;5007603;28;20052;-76
2023/06/27 09:13:47;;;;;;;4.82;0.98;;;19.80;99.90;;;;;;5013647;28;20092;-76
2023/06/27 09:16:13;;;;;;;5.68;1.23;;;19.70;99.90;;;;;;5014007;28;20501;-77
2023/06/27 09:18:39;;;;;;;6.35;1.30;;;19.70;99.90;;;;;;5013656;28;20082;-74
2023/06/27 09:21:06;;;;;;;5.35;1.20;;;19.70;99.90;;;;;;5013479;28;20049;-78
2023/06/27 09:23:32;;;;;;;7.25;1.30;;;19.90;99.90;;;;;;5013439;28;20048;-75
2023/06/27 09:26:11;;;;;;;7.82;1.27;;;19.90;99.90;;;;;;5014858;28;20048;-76
2023/06/27 09:28:50;;;;;;;6.85;1.58;;;20.00;99.90;;;;;;5015015;28;20110;-75
2023/06/27 09:31:21;;;;;;;5.97;1.20;;;20.10;99.90;;;;;;5012621;28;20042;-77
2023/06/27 09:33:48;;;;;;;8.20;1.30;;;20.10;99.90;;;;;;5011266;28;20072;-78
2023/06/27 09:36:39;;;;;;;5.55;1.67;;;20.30;99.90;;;;;;5013289;28;20050;-78
2023/06/27 09:39:09;;;;;;;4.07;1.17;;;20.20;99.90;;;;;;5013725;28;20042;-74
2023/06/27 09:41:46;;;;;;;6.15;1.15;;;20.30;99.90;;;;;;5012509;28;20037;-75
2023/06/27 09:44:17;;;;;;;4.03;1.02;;;20.40;99.90;;;;;;5011826;28;20046;-77
2023/06/27 09:46:44;;;;;;;5.40;1.15;;;20.40;99.90;;;;;;5011755;28;20045;-78
2023/06/27 09:49:10;;;;;;;8.02;1.65;;;20.30;99.90;;;;;;5011236;28;20053;-76
2023/06/27 09:51:36;;;;;;;7.45;1.30;;;20.30;99.90;;;;;;4995415;28;20046;-76
2023/06/27 09:54:02;;;;;;;4.40;1.05;;;20.40;99.90;;;;;;5011851;28;20084;-77
2023/06/27 09:56:30;;;;;;;8.10;1.27;;;20.60;99.90;;;;;;5013172;28;20038;-78
2023/06/27 09:58:56;;;;;;;6.22;1.10;;;20.80;99.90;;;;;;5012989;28;20518;-76
2023/06/27 10:01:26;;;;;;;4.82;1.10;;;20.90;99.90;;;;;;5012806;28;20049;-76
2023/06/27 10:03:51;;;;;;;4.00;1.10;;;20.90;99.90;;;;;;5013960;28;20111;-76
2023/06/27 10:06:17;;;;;;;5.80;1.10;;;21.00;99.90;;;;;;5012939;28;20515;-78
2023/06/27 10:08:43;;;;;;;6.07;1.10;;;21.20;99.90;;;;;;5014387;28;20100;-77
2023/06/27 10:11:09;;;;;;;5.82;0.90;;;21.30;99.90;;;;;;5005061;28;20400;-73
2023/06/27 10:13:36;;;;;;;4.05;1.08;;;21.30;99.90;;;;;;5014680;28;20052;-77
2023/06/27 10:16:02;;;;;;;4.18;1.13;;;21.20;99.90;;;;;;5014032;28;20081;-76
2023/06/27 10:18:28;;;;;;;5.00;1.05;;;21.10;99.90;;;;;;5012646;28;20046;-75
2023/06/27 10:20:57;;;;;;;4.93;1.40;;;21.10;99.90;;;;;;5012505;28;20042;-75
2023/06/27 10:23:25;;;;;;;5.72;1.30;;;21.30;99.90;;;;;;5012883;28;20077;-76
2023/06/27 10:25:51;;;;;;;7.28;1.15;;;21.50;99.90;;;;;;5012873;28;20442;-75
2023/06/27 10:28:19;;;;;;;4.95;1.20;;;21.70;99.90;;;;;;5012838;28;20104;-75
2023/06/27 10:30:46;;;;;;;4.40;0.98;;;21.60;99.90;;;;;;5013437;28;20085;-75
2023/06/27 10:33:22;;;;;;;3.72;0.95;;;21.50;99.90;;;;;;5013799;28;20556;-75
2023/06/27 10:35:50;;;;;;;5.93;1.40;;;21.60;99.90;;;;;;5014064;28;20045;-76
2023/06/27 10:38:18;;;;;;;3.63;0.80;;;21.80;99.90;;;;;;5014162;28;20044;-75
2023/06/27 10:41:03;;;;;;;4.47;0.90;;;21.80;99.90;;;;;;5013673;28;20095;-75
2023/06/27 10:43:48;;;;;;;4.68;1.00;;;21.60;99.90;;;;;;5013641;28;20116;-77
2023/06/27 10:46:21;;;;;;;6.65;1.00;;;21.40;99.90;;;;;;5012387;28;20136;-75
2023/06/27 10:48:51;;;;;;;6.00;1.20;;;21.10;99.90;;;;;;5012524;28;20042;-76
2023/06/27 10:51:22;;;;;;;4.82;1.00;;;21.10;99.90;;;;;;5013691;28;20069;-77
2023/06/27 10:54:12;;;;;;;7.78;1.30;;;21.30;99.90;;;;;;5014252;28;20387;-75
2023/06/27 10:56:45;;;;;;;5.72;1.20;;;21.20;99.90;;;;;;5012396;28;20069;-74
2023/06/27 10:59:19;;;;;;;5.60;1.10;;;21.10;99.90;;;;;;5013515;28;20041;-76
2023/06/27 11:02:04;;;;;;;7.63;1.58;;;21.10;99.90;;;;;;5012280;28;20056;-76
2023/06/27 11:04:46;;;;;;;8.55;1.63;;;21.00;99.90;;;;;;5012398;28;20377;-75
2023/06/27 11:07:17;;;;;;;5.03;1.13;;;21.00;99.90;;;;;;5012353;28;20026;-75
2023/06/27 11:09:52;;;;;;;5.10;1.10;;;21.10;99.90;;;;;;5013526;28;20046;-75
2023/06/27 11:12:19;;;;;;;9.02;1.52;;;21.20;99.90;;;;;;5009321;28;20487;-76
2023/06/27 11:14:45;;;;;;;7.38;1.67;;;21.30;99.90;;;;;;4996542;28;20038;-77
2023/06/27 11:17:12;;;;;;;4.07;1.00;;;21.40;99.90;;;;;;5008540;28;20068;-73
2023/06/27 11:19:39;;;;;;;8.00;1.17;;;21.80;99.90;;;;;;5007895;28;20041;-75
2023/06/27 11:22:06;;;;;;;4.28;1.10;;;21.90;99.90;;;;;;5015995;28;20049;-75
2023/06/27 11:24:32;;;;;;;5.15;1.30;;;21.90;99.90;;;;;;5005547;28;20121;-74
2023/06/27 11:26:58;;;;;;;8.52;1.42;;;21.80;99.90;;;;;;5012128;28;20045;-76
2023/06/27 11:29:25;;;;;;;5.05;1.63;;;21.80;99.90;;;;;;5016404;28;20099;-76
2023/06/27 11:31:51;;;;;;;5.30;1.08;;;21.60;99.90;;;;;;5016945;28;20042;-75
2023/06/27 11:34:18;;;;;;;4.88;1.00;;;21.60;99.90;;;;;;5014788;28;20123;-76
2023/06/27 11:36:44;;;;;;;4.65;1.30;;;21.90;99.90;;;;;;5016815;28;20038;-76
2023/06/27 11:39:15;;;;;;;4.38;1.20;;;21.80;99.90;;;;;;5015351;28;20049;-77
2023/06/27 11:41:45;;;;;;;4.63;1.05;;;21.90;99.90;;;;;;4996453;28;20065;-76
2023/06/27 11:44:12;;;;;;;4.05;1.10;;;21.80;99.90;;;;;;5010405;28;20049;-75
2023/06/27 11:46:47;;;;;;;4.97;1.05;;;21.80;99.90;;;;;;5016927;28;20034;-74
2023/06/27 11:49:12;;;;;;;3.53;0.90;;;21.90;99.90;;;;;;5016114;28;20076;-75
2023/06/27 11:51:39;;;;;;;5.65;1.10;;;21.90;99.90;;;;;;5015446;28;20065;-77
2023/06/27 11:54:07;;;;;;;3.58;0.98;;;22.30;99.90;;;;;;5017095;28;20534;-77
2023/06/27 11:56:39;;;;;;;4.55;1.00;;;22.30;99.90;;;;;;5015996;28;20077;-78
2023/06/27 11:59:06;;;;;;;7.70;1.35;;;22.30;99.90;;;;;;5015965;28;20491;-76
2023/06/27 12:01:33;;;;;;;3.08;0.88;;;22.40;99.90;;;;;;5015422;28;20475;-76
2023/06/27 12:04:00;;;;;;;3.95;1.05;;;22.20;99.90;;;;;;5016584;28;20109;-77
2023/06/27 12:06:28;;;;;;;3.38;0.80;;;22.10;99.90;;;;;;5015028;28;20050;-74
2023/06/27 12:08:55;;;;;;;5.00;1.02;;;21.90;99.20;;;;;;5015159;28;20251;-76
2023/06/27 12:11:36;;;;;;;5.45;1.15;;;21.90;98.90;;;;;;5014885;28;20041;-74
2023/06/27 12:14:03;;;;;;;4.88;0.80;;;21.90;99.00;;;;;;5015356;28;20426;-75
2023/06/27 12:16:33;;;;;;;3.80;1.17;;;21.90;99.90;;;;;;5016932;28;20049;-78
2023/06/27 12:19:07;;;;;;;4.50;1.17;;;21.80;99.90;;;;;;5015172;28;20442;-74
2023/06/27 12:21:33;;;;;;;9.40;1.33;;;21.70;99.10;;;;;;5015140;28;20038;-77
2023/06/27 12:24:00;;;;;;;5.78;0.80;;;21.60;99.60;;;;;;5015308;28;20368;-75
2023/06/27 12:26:25;;;;;;;4.13;0.90;;;21.60;99.10;;;;;;5015140;28;20172;-78
2023/06/27 12:28:59;;;;;;;5.22;1.10;;;21.50;99.40;;;;;;5015285;28;20110;-74
2023/06/27 12:31:25;;;;;;;3.70;0.88;;;21.60;99.90;;;;;;5014652;28;20081;-75
2023/06/27 12:33:52;;;;;;;4.85;0.90;;;21.50;99.90;;;;;;4998363;28;20050;-76
2023/06/27 12:36:19;;;;;;;2.42;0.90;;;21.50;99.90;;;;;;5014608;28;20049;-75
2023/06/27 12:38:45;;;;;;;4.70;1.40;;;21.60;99.90;;;;;;5014180;28;20049;-77
2023/06/27 12:41:11;;;;;;;4.45;0.90;;;21.60;99.10;;;;;;5013665;28;20041;-76
2023/06/27 12:43:36;;;;;;;4.60;0.80;;;21.70;99.30;;;;;;5014432;28;20038;-78
2023/06/27 12:46:04;;;;;;;3.63;1.13;;;21.80;98.80;;;;;;5014800;28;20121;-74
2023/06/27 12:48:30;;;;;;;6.25;1.00;;;21.80;98.00;;;;;;5014401;28;20042;-75
2023/06/27 12:50:55;;;;;;;5.72;1.10;;;21.60;98.70;;;;;;5015520;28;20041;-77
2023/06/27 12:53:21;;;;;;;4.50;0.80;;;21.50;98.90;;;;;;5014427;28;20096;-74
2023/06/27 12:55:47;;;;;;;3.95;0.75;;;21.50;99.30;;;;;;5015447;28;20048;-77
2023/06/27 12:58:12;;;;;;;5.38;1.30;;;21.80;99.40;;;;;;5015655;28;20126;-75
2023/06/27 13:00:39;;;;;;;2.80;0.80;;;22.10;98.50;;;;;;5015710;28;20049;-75
2023/06/27 13:03:06;;;;;;;2.83;0.73;;;22.00;96.70;;;;;;5015371;28;20084;-79
2023/06/27 13:05:32;;;;;;;4.03;0.90;;;22.00;96.70;;;;;;5014367;28;20402;-77
2023/06/27 13:07:57;;;;;;;5.90;0.88;;;21.90;97.30;;;;;;5014652;28;20058;-80
2023/06/27 13:10:26;;;;;;;4.53;0.90;;;21.70;96.20;;;;;;5013830;28;20057;-75
2023/06/27 13:12:52;;;;;;;6.00;1.20;;;21.50;96.80;;;;;;5015381;28;20399;-75
2023/06/27 13:15:18;;;;;;;3.58;1.00;;;21.70;97.80;;;;;;5015084;28;20041;-75
2023/06/27 13:17:45;;;;;;;4.93;1.00;;;21.80;98.30;;;;;;5014031;28;20456;-75
2023/06/27 13:20:12;;;;;;;3.47;0.90;;;21.70;97.10;;;;;;5013617;28;20237;-76
2023/06/27 13:22:42;;;;;;;5.35;1.00;;;21.60;97.00;;;;;;4997279;28;20548;-78
2023/06/27 13:25:08;;;;;;;3.97;0.82;;;21.40;97.30;;;;;;5014399;28;20411;-75
2023/06/27 13:27:36;;;;;;;5.55;1.00;;;21.50;98.10;;;;;;5015845;28;20045;-76
2023/06/27 13:30:03;;;;;;;5.40;1.00;;;21.40;98.40;;;;;;5014576;28;20050;-78
2023/06/27 13:32:31;;;;;;;16.88;2.15;;;21.60;98.40;;;;;;5014340;28;20057;-76
2023/06/27 13:34:57;;;;;;;4.18;1.02;;;21.50;98.60;;;;;;5013669;28;20404;-78
2023/06/27 13:37:23;;;;;;;3.55;0.70;;;21.80;99.10;;;;;;5014445;28;20135;-76
2023/06/27 13:39:50;;;;;;;5.07;1.02;;;21.90;97.50;;;;;;5012435;28;20531;-75
2023/06/27 13:42:16;;;;;;;5.97;1.05;;;22.00;96.90;;;;;;5013730;28;20050;-77
2023/06/27 13:44:42;;;;;;;3.97;1.05;;;22.20;97.20;;;;;;5013855;28;20048;-75
2023/06/27 13:47:08;;;;;;;5.70;0.90;;;22.00;96.60;;;;;;5013352;28;20045;-75
2023/06/27 13:49:34;;;;;;;5.15;0.90;;;22.00;97.00;;;;;;5013991;28;20053;-77
2023/06/27 13:52:03;;;;;;;4.07;0.68;;;21.90;97.20;;;;;;5014339;28;20453;-77
2023/06/27 13:54:30;;;;;;;3.00;0.80;;;21.80;97.30;;;;;;5013470;28;20073;-78
2023/06/27 13:56:56;;;;;;;5.28;0.90;;;21.90;97.70;;;;;;5014544;28;20037;-76
2023/06/27 13:59:22;;;;;;;3.05;1.05;;;22.00;98.00;;;;;;5012792;28;20125;-76
2023/06/27 14:01:47;;;;;;;4.20;0.90;;;21.80;97.80;;;;;;5013380;28;20129;-75
2023/06/27 14:04:13;;;;;;;3.42;1.02;;;21.70;97.10;;;;;;5014323;28;20044;-75
2023/06/27 14:06:39;;;;;;;4.43;0.90;;;21.60;97.60;;;;;;4997049;28;20042;-76
2023/06/27 14:09:05;;;;;;;3.28;0.80;;;21.70;98.00;;;;;;5013072;28;20095;-79
2023/06/27 14:11:30;;;;;;;4.85;1.10;;;21.60;97.90;;;;;;5012949;28;20042;-75
2023/06/27 14:13:56;;;;;;;5.13;1.20;;;21.50;98.20;;;;;;5012997;28;20044;-78
2023/06/27 14:16:22;;;;;;;4.22;1.02;;;21.60;98.50;;;;;;5013240;28;20038;-76
2023/06/27 14:18:47;;;;;;;2.70;1.02;;;21.50;98.40;;;;;;4996952;28;20045;-75
2023/06/27 14:21:13;;;;;;;6.20;1.10;;;21.60;98.20;;;;;;5013233;28;20103;-74
2023/06/27 14:23:39;;;;;;;4.60;0.90;;;21.60;98.30;;;;;;5012538;28;20056;-77
2023/06/27 14:26:07;;;;;;;3.97;1.00;;;21.80;98.70;;;;;;5012972;28;20125;-78
2023/06/27 14:28:33;;;;;;;4.65;1.20;;;22.00;98.80;;;;;;5014297;28;20117;-78
2023/06/27 14:30:59;;;;;;;4.00;0.93;;;22.10;98.90;;;;;;5013715;28;20515;-75
2023/06/27 14:33:26;;;;;;;4.68;1.10;;;22.10;98.80;;;;;;5014034;28;20046;-78
2023/06/27 14:35:52;;;;;;;5.82;1.30;;;22.00;98.90;;;;;;5012757;28;20092;-77
2023/06/27 14:38:18;;;;;;;3.47;1.20;;;21.90;99.20;;;;;;5012527;28;20460;-79
2023/06/27 14:40:45;;;;;;;4.30;0.90;;;21.90;98.90;;;;;;5012290;28;20041;-77
2023/06/27 14:43:12;;;;;;;3.95;1.23;;;21.90;99.00;;;;;;5013739;28;20045;-75
2023/06/27 14:45:38;;;;;;;4.70;0.93;;;21.80;98.60;;;;;;5013882;28;20070;-77
2023/06/27 14:48:05;;;;;;;3.78;0.80;;;21.60;98.60;;;;;;5013507;28;20116;-77
2023/06/27 14:50:30;;;;;;;5.60;1.00;;;21.60;98.40;;;;;;5002554;28;20534;-75
2023/06/27 14:52:56;;;;;;;6.70;1.38;;;21.50;98.20;;;;;;4992589;28;20074;-78
2023/06/27 14:55:22;;;;;;;5.30;1.02;;;21.40;98.60;;;;;;4992574;28;20377;-79
2023/06/27 14:57:47;;;;;;;5.80;1.10;;;21.40;99.00;;;;;;4992443;28;20127;-75
2023/06/27 15:00:18;;;;;;;6.55;1.30;;;21.50;98.90;;;;;;4992399;28;20038;-78
2023/06/27 15:02:44;;;;;;;4.85;1.00;;;21.60;99.30;;;;;;5009695;28;20108;-77
2023/06/27 15:05:10;;;;;;;5.82;1.25;;;21.50;99.00;;;;;;4992454;28;20054;-79
2023/06/27 15:07:37;;;;;;;8.18;1.10;;;21.40;99.00;;;;;;4992464;28;20041;-81
2023/06/27 15:10:03;;;;;;;4.05;1.10;;;21.30;99.40;;;;;;4992463;28;20056;-78
2023/06/27 15:12:35;;;;;;;6.07;0.90;;;21.20;99.90;;;;;;4992646;28;20054;-75
2023/06/27 15:15:04;;;;;;;3.03;1.10;;;21.20;99.90;;;;;;4992449;28;20112;-76
2023/06/27 15:17:30;;;;;;;5.32;1.20;;;21.20;99.90;;;;;;4992569;28;20050;-74
2023/06/27 15:19:56;;;;;;;5.60;1.55;;;21.30;99.90;;;;;;4992281;28;20051;-77
2023/06/27 15:22:23;;;;;;;6.80;1.30;;;21.20;99.90;;;;;;4992772;28;20116;-79
2023/06/27 15:24:50;;;;;;;5.55;1.33;;;21.00;99.90;;;;;;4992365;28;20089;-76
2023/06/27 15:27:17;;;;;;;7.32;1.52;;;21.10;99.90;;;;;;4992311;28;20042;-78
2023/06/27 15:29:42;;;;;;;6.68;1.77;;;21.00;99.90;;;;;;4992470;28;20046;-75
2023/06/27 15:32:11;;;;;;;8.15;2.10;;;21.00;99.90;;;;;;4992062;28;20042;-77
2023/06/27 15:34:42;;;;;;;6.28;1.58;;;20.90;99.90;;;;;;4992968;28;20472;-77
2023/06/27 15:37:08;;;;;;;7.03;1.60;;;20.90;99.90;;;;;;4992173;28;20116;-77
2023/06/27 15:39:34;;;;;;;6.95;1.50;;;20.70;99.90;;;;;;4991929;28;20488;-77
2023/06/27 15:42:00;;;;;;;8.20;1.50;;;20.60;99.90;;;;;;4992229;28;20049;-76
2023/06/27 15:44:26;;;;;;;6.10;1.40;;;20.50;99.90;;;;;;4992413;28;20125;-77